Terminal Aerodrome Forecast
Issued by NWS Pocatello, ID

Home | Current Version | Previous Version | Text Only | Print | Product List | Glossary On
Versions: 1 2 3 4 5 6 7 8 9 10 11 12 13 14 15 16 17 18 19 20 21 22 23 24 25 26
000
FTUS45 KPIH 200520
TAFIDA
TAF
KIDA 200520Z 2006/2106 21017KT P6SM BKN200
     FM201200 21010KT P6SM BKN200
     FM201900 22014G24KT P6SM BKN200
     FM210300 21016KT P6SM OVC150=

USA.gov is the U.S. government's official web portal to all federal, state and local government web resources and services.